West Branch, Iowa
Current Conditions -  °F | °C
As of 7:52 PM on Saturday 22 Nov 2014 (Local Time) from KIOW Reporting Station
Overcast Overcast  
Wind Chill: 53°   Ceiling: 2600
Heat Index: 53°   Visibility: 10mi
Dew Point: 50°   Wind: 12mph
Humidity: 89%   Direction: 170°S
Pressure: 29.77"   Gusts: NA
Location:  41.67°N, 91.35°W
Report Text: KIOW 230152Z AUTO 17010KT 10SM OVC026 12/10 A2977 RMK AO2 SLP083 T01170100
Loading
Personal Weather Stations






























Interactive Weather Map New forecast layout! Learn more

10-Day Weather Forecast

Advertisements
Track Severe Weather on mobile